sensor_id;sensor_type;location;lat;lon;timestamp;P1;durP1;ratioP1;P2;durP2;ratioP2
20511;SDS011;10414;52.074;5.126;2023-06-22T00:00:03;9.93;;;5.05;;
20511;SDS011;10414;52.074;5.126;2023-06-22T00:02:36;10.68;;;6.03;;
20511;SDS011;10414;52.074;5.126;2023-06-22T00:05:03;9.32;;;5.43;;
20511;SDS011;10414;52.074;5.126;2023-06-22T00:07:32;10.50;;;6.10;;
20511;SDS011;10414;52.074;5.126;2023-06-22T00:10:00;9.50;;;5.78;;
20511;SDS011;10414;52.074;5.126;2023-06-22T00:12:27;10.23;;;5.07;;
20511;SDS011;10414;52.074;5.126;2023-06-22T00:14:54;11.02;;;6.50;;
20511;SDS011;10414;52.074;5.126;2023-06-22T00:17:21;11.80;;;6.72;;
20511;SDS011;10414;52.074;5.126;2023-06-22T00:19:51;11.02;;;6.40;;
20511;SDS011;10414;52.074;5.126;2023-06-22T00:22:20;11.83;;;6.37;;
20511;SDS011;10414;52.074;5.126;2023-06-22T00:24:54;12.77;;;7.15;;
20511;SDS011;10414;52.074;5.126;2023-06-22T00:27:22;15.00;;;7.88;;
20511;SDS011;10414;52.074;5.126;2023-06-22T00:29:49;14.80;;;8.38;;
20511;SDS011;10414;52.074;5.126;2023-06-22T00:32:16;15.65;;;8.60;;
20511;SDS011;10414;52.074;5.126;2023-06-22T00:34:45;17.27;;;8.50;;
20511;SDS011;10414;52.074;5.126;2023-06-22T00:37:12;14.60;;;8.85;;
20511;SDS011;10414;52.074;5.126;2023-06-22T00:39:46;16.35;;;9.05;;
20511;SDS011;10414;52.074;5.126;2023-06-22T00:42:12;14.32;;;8.60;;
20511;SDS011;10414;52.074;5.126;2023-06-22T00:44:40;12.57;;;8.82;;
20511;SDS011;10414;52.074;5.126;2023-06-22T00:47:10;16.80;;;9.98;;
20511;SDS011;10414;52.074;5.126;2023-06-22T00:49:38;19.42;;;9.82;;
20511;SDS011;10414;52.074;5.126;2023-06-22T00:52:05;17.10;;;9.65;;
20511;SDS011;10414;52.074;5.126;2023-06-22T00:54:34;16.35;;;9.88;;
20511;SDS011;10414;52.074;5.126;2023-06-22T00:57:10;14.82;;;8.88;;
20511;SDS011;10414;52.074;5.126;2023-06-22T00:59:42;14.05;;;8.65;;
20511;SDS011;10414;52.074;5.126;2023-06-22T01:02:11;13.82;;;7.95;;
20511;SDS011;10414;52.074;5.126;2023-06-22T01:04:38;15.32;;;8.80;;
20511;SDS011;10414;52.074;5.126;2023-06-22T01:07:08;14.10;;;8.38;;
20511;SDS011;10414;52.074;5.126;2023-06-22T01:09:47;17.05;;;8.80;;
20511;SDS011;10414;52.074;5.126;2023-06-22T01:12:19;17.25;;;8.05;;
20511;SDS011;10414;52.074;5.126;2023-06-22T01:14:52;17.70;;;9.90;;
20511;SDS011;10414;52.074;5.126;2023-06-22T01:17:24;16.02;;;8.57;;
20511;SDS011;10414;52.074;5.126;2023-06-22T01:19:55;16.83;;;9.07;;
20511;SDS011;10414;52.074;5.126;2023-06-22T01:22:26;16.40;;;9.70;;
20511;SDS011;10414;52.074;5.126;2023-06-22T01:24:58;15.25;;;10.05;;
20511;SDS011;10414;52.074;5.126;2023-06-22T01:27:36;17.00;;;9.50;;
20511;SDS011;10414;52.074;5.126;2023-06-22T01:30:11;13.27;;;7.80;;
20511;SDS011;10414;52.074;5.126;2023-06-22T01:32:42;16.30;;;9.27;;
20511;SDS011;10414;52.074;5.126;2023-06-22T01:35:10;18.17;;;9.98;;
20511;SDS011;10414;52.074;5.126;2023-06-22T01:37:38;21.27;;;10.80;;
20511;SDS011;10414;52.074;5.126;2023-06-22T01:40:05;14.32;;;8.90;;
20511;SDS011;10414;52.074;5.126;2023-06-22T01:42:35;20.58;;;11.38;;
20511;SDS011;10414;52.074;5.126;2023-06-22T01:45:03;19.55;;;10.63;;
20511;SDS011;10414;52.074;5.126;2023-06-22T01:47:35;18.92;;;11.23;;
20511;SDS011;10414;52.074;5.126;2023-06-22T01:50:02;17.77;;;10.68;;
20511;SDS011;10414;52.074;5.126;2023-06-22T01:52:30;17.38;;;10.73;;
20511;SDS011;10414;52.074;5.126;2023-06-22T01:54:59;16.50;;;10.05;;
20511;SDS011;10414;52.074;5.126;2023-06-22T01:57:26;18.02;;;11.07;;
20511;SDS011;10414;52.074;5.126;2023-06-22T01:59:55;17.00;;;9.85;;
20511;SDS011;10414;52.074;5.126;2023-06-22T02:02:28;15.95;;;10.52;;
20511;SDS011;10414;52.074;5.126;2023-06-22T02:05:02;17.45;;;10.18;;
20511;SDS011;10414;52.074;5.126;2023-06-22T02:07:49;18.33;;;10.10;;
20511;SDS011;10414;52.074;5.126;2023-06-22T02:10:23;17.02;;;9.73;;
20511;SDS011;10414;52.074;5.126;2023-06-22T02:12:55;18.40;;;11.20;;
20511;SDS011;10414;52.074;5.126;2023-06-22T02:15:23;18.60;;;10.57;;
20511;SDS011;10414;52.074;5.126;2023-06-22T02:17:51;20.30;;;11.25;;
20511;SDS011;10414;52.074;5.126;2023-06-22T02:20:19;22.00;;;11.10;;
20511;SDS011;10414;52.074;5.126;2023-06-22T02:22:46;16.80;;;9.63;;
20511;SDS011;10414;52.074;5.126;2023-06-22T02:25:13;17.30;;;10.70;;
20511;SDS011;10414;52.074;5.126;2023-06-22T02:27:41;18.88;;;10.68;;
20511;SDS011;10414;52.074;5.126;2023-06-22T02:30:08;20.70;;;11.73;;
20511;SDS011;10414;52.074;5.126;2023-06-22T02:32:35;17.80;;;10.30;;
20511;SDS011;10414;52.074;5.126;2023-06-22T02:35:07;17.70;;;10.93;;
20511;SDS011;10414;52.074;5.126;2023-06-22T02:37:36;18.50;;;11.60;;
20511;SDS011;10414;52.074;5.126;2023-06-22T02:40:06;17.83;;;10.35;;
20511;SDS011;10414;52.074;5.126;2023-06-22T02:42:35;18.05;;;11.43;;
20511;SDS011;10414;52.074;5.126;2023-06-22T02:45:06;18.10;;;9.68;;
20511;SDS011;10414;52.074;5.126;2023-06-22T02:47:33;18.05;;;10.63;;
20511;SDS011;10414;52.074;5.126;2023-06-22T02:50:00;20.40;;;11.45;;
20511;SDS011;10414;52.074;5.126;2023-06-22T02:52:27;16.90;;;10.85;;
20511;SDS011;10414;52.074;5.126;2023-06-22T02:54:55;20.23;;;11.35;;
20511;SDS011;10414;52.074;5.126;2023-06-22T02:57:22;20.02;;;11.50;;
20511;SDS011;10414;52.074;5.126;2023-06-22T02:59:49;19.58;;;11.63;;
20511;SDS011;10414;52.074;5.126;2023-06-22T03:02:16;19.80;;;12.00;;
20511;SDS011;10414;52.074;5.126;2023-06-22T03:04:46;20.35;;;11.25;;
20511;SDS011;10414;52.074;5.126;2023-06-22T03:07:14;19.80;;;11.60;;
20511;SDS011;10414;52.074;5.126;2023-06-22T03:09:42;19.02;;;10.63;;
20511;SDS011;10414;52.074;5.126;2023-06-22T03:12:20;17.35;;;10.20;;
20511;SDS011;10414;52.074;5.126;2023-06-22T03:14:47;17.38;;;9.77;;
20511;SDS011;10414;52.074;5.126;2023-06-22T03:17:14;16.23;;;10.00;;
20511;SDS011;10414;52.074;5.126;2023-06-22T03:19:41;18.42;;;10.57;;
20511;SDS011;10414;52.074;5.126;2023-06-22T03:22:08;21.42;;;12.68;;
20511;SDS011;10414;52.074;5.126;2023-06-22T03:24:35;17.73;;;10.18;;
20511;SDS011;10414;52.074;5.126;2023-06-22T03:27:04;21.10;;;11.75;;
20511;SDS011;10414;52.074;5.126;2023-06-22T03:29:33;18.25;;;10.80;;
20511;SDS011;10414;52.074;5.126;2023-06-22T03:32:00;18.42;;;10.90;;
20511;SDS011;10414;52.074;5.126;2023-06-22T03:34:27;17.13;;;11.20;;
20511;SDS011;10414;52.074;5.126;2023-06-22T03:36:53;19.98;;;11.20;;
20511;SDS011;10414;52.074;5.126;2023-06-22T03:39:20;18.83;;;11.07;;
20511;SDS011;10414;52.074;5.126;2023-06-22T03:41:47;18.98;;;11.35;;
20511;SDS011;10414;52.074;5.126;2023-06-22T03:44:14;19.02;;;12.10;;
20511;SDS011;10414;52.074;5.126;2023-06-22T03:46:47;17.83;;;11.48;;
20511;SDS011;10414;52.074;5.126;2023-06-22T03:49:16;18.67;;;10.98;;
20511;SDS011;10414;52.074;5.126;2023-06-22T03:51:43;18.73;;;10.90;;
20511;SDS011;10414;52.074;5.126;2023-06-22T03:54:11;19.58;;;11.38;;
20511;SDS011;10414;52.074;5.126;2023-06-22T03:56:38;20.13;;;11.30;;
20511;SDS011;10414;52.074;5.126;2023-06-22T03:59:05;19.88;;;12.10;;
20511;SDS011;10414;52.074;5.126;2023-06-22T04:01:32;19.58;;;11.45;;
20511;SDS011;10414;52.074;5.126;2023-06-22T04:04:03;16.92;;;10.50;;
20511;SDS011;10414;52.074;5.126;2023-06-22T04:06:30;19.17;;;11.88;;
20511;SDS011;10414;52.074;5.126;2023-06-22T04:08:59;15.63;;;10.38;;
20511;SDS011;10414;52.074;5.126;2023-06-22T04:11:25;18.95;;;11.60;;
20511;SDS011;10414;52.074;5.126;2023-06-22T04:13:52;16.63;;;10.90;;
20511;SDS011;10414;52.074;5.126;2023-06-22T04:16:20;17.20;;;10.63;;
20511;SDS011;10414;52.074;5.126;2023-06-22T04:18:47;14.55;;;9.48;;
20511;SDS011;10414;52.074;5.126;2023-06-22T04:21:16;15.50;;;9.43;;
20511;SDS011;10414;52.074;5.126;2023-06-22T04:23:44;15.93;;;9.00;;
20511;SDS011;10414;52.074;5.126;2023-06-22T04:26:17;14.95;;;9.10;;
20511;SDS011;10414;52.074;5.126;2023-06-22T04:28:46;14.32;;;8.43;;
20511;SDS011;10414;52.074;5.126;2023-06-22T04:31:16;15.40;;;8.48;;
20511;SDS011;10414;52.074;5.126;2023-06-22T04:33:44;13.52;;;9.00;;
20511;SDS011;10414;52.074;5.126;2023-06-22T04:36:11;12.85;;;8.73;;
20511;SDS011;10414;52.074;5.126;2023-06-22T04:38:42;13.68;;;8.70;;
20511;SDS011;10414;52.074;5.126;2023-06-22T04:41:10;17.30;;;9.80;;
20511;SDS011;10414;52.074;5.126;2023-06-22T04:43:48;15.70;;;9.63;;
20511;SDS011;10414;52.074;5.126;2023-06-22T04:46:18;17.35;;;9.68;;
20511;SDS011;10414;52.074;5.126;2023-06-22T04:48:48;15.18;;;9.50;;
20511;SDS011;10414;52.074;5.126;2023-06-22T04:51:15;14.70;;;9.40;;
20511;SDS011;10414;52.074;5.126;2023-06-22T04:53:48;13.93;;;9.25;;
20511;SDS011;10414;52.074;5.126;2023-06-22T04:56:17;14.15;;;8.50;;
20511;SDS011;10414;52.074;5.126;2023-06-22T04:58:46;14.35;;;9.68;;
20511;SDS011;10414;52.074;5.126;2023-06-22T05:01:13;14.25;;;9.15;;
20511;SDS011;10414;52.074;5.126;2023-06-22T05:03:40;13.65;;;8.63;;
20511;SDS011;10414;52.074;5.126;2023-06-22T05:06:09;13.13;;;8.57;;
20511;SDS011;10414;52.074;5.126;2023-06-22T05:08:38;14.30;;;8.82;;
20511;SDS011;10414;52.074;5.126;2023-06-22T05:11:06;15.60;;;9.02;;
20511;SDS011;10414;52.074;5.126;2023-06-22T05:13:33;14.85;;;8.45;;
20511;SDS011;10414;52.074;5.126;2023-06-22T05:16:00;13.10;;;9.32;;
20511;SDS011;10414;52.074;5.126;2023-06-22T05:18:28;15.02;;;9.48;;
20511;SDS011;10414;52.074;5.126;2023-06-22T05:20:55;14.50;;;9.82;;
20511;SDS011;10414;52.074;5.126;2023-06-22T05:23:22;13.60;;;9.35;;
20511;SDS011;10414;52.074;5.126;2023-06-22T05:25:51;13.98;;;9.32;;
20511;SDS011;10414;52.074;5.126;2023-06-22T05:28:20;12.40;;;8.95;;
20511;SDS011;10414;52.074;5.126;2023-06-22T05:30:47;14.65;;;9.40;;
20511;SDS011;10414;52.074;5.126;2023-06-22T05:33:14;15.60;;;9.23;;
20511;SDS011;10414;52.074;5.126;2023-06-22T05:35:41;13.63;;;8.80;;
20511;SDS011;10414;52.074;5.126;2023-06-22T05:38:08;14.23;;;9.93;;
20511;SDS011;10414;52.074;5.126;2023-06-22T05:40:35;14.23;;;9.48;;
20511;SDS011;10414;52.074;5.126;2023-06-22T05:43:02;11.77;;;9.25;;
20511;SDS011;10414;52.074;5.126;2023-06-22T05:45:32;14.50;;;9.55;;
20511;SDS011;10414;52.074;5.126;2023-06-22T05:48:01;13.48;;;9.38;;
20511;SDS011;10414;52.074;5.126;2023-06-22T05:52:55;15.63;;;9.95;;
20511;SDS011;10414;52.074;5.126;2023-06-22T05:55:22;15.07;;;9.25;;
20511;SDS011;10414;52.074;5.126;2023-06-22T05:57:49;14.93;;;9.82;;
20511;SDS011;10414;52.074;5.126;2023-06-22T06:00:16;15.25;;;10.18;;
20511;SDS011;10414;52.074;5.126;2023-06-22T06:02:45;15.43;;;11.32;;
20511;SDS011;10414;52.074;5.126;2023-06-22T06:05:15;16.38;;;11.60;;
20511;SDS011;10414;52.074;5.126;2023-06-22T06:10:12;17.50;;;12.30;;
20511;SDS011;10414;52.074;5.126;2023-06-22T06:12:39;20.90;;;13.65;;
20511;SDS011;10414;52.074;5.126;2023-06-22T06:15:09;19.30;;;11.95;;
20511;SDS011;10414;52.074;5.126;2023-06-22T06:17:46;16.75;;;11.65;;
20511;SDS011;10414;52.074;5.126;2023-06-22T06:20:17;20.83;;;13.93;;
20511;SDS011;10414;52.074;5.126;2023-06-22T06:22:48;23.90;;;13.38;;
20511;SDS011;10414;52.074;5.126;2023-06-22T06:25:15;18.05;;;13.20;;
20511;SDS011;10414;52.074;5.126;2023-06-22T06:27:45;19.70;;;12.80;;
20511;SDS011;10414;52.074;5.126;2023-06-22T06:30:12;21.77;;;14.73;;
20511;SDS011;10414;52.074;5.126;2023-06-22T06:32:41;21.70;;;14.68;;
20511;SDS011;10414;52.074;5.126;2023-06-22T06:35:13;22.42;;;14.25;;
20511;SDS011;10414;52.074;5.126;2023-06-22T06:37:42;19.25;;;14.57;;
20511;SDS011;10414;52.074;5.126;2023-06-22T06:40:10;21.65;;;15.38;;
20511;SDS011;10414;52.074;5.126;2023-06-22T06:42:42;22.17;;;14.18;;
20511;SDS011;10414;52.074;5.126;2023-06-22T06:45:10;22.95;;;14.07;;
20511;SDS011;10414;52.074;5.126;2023-06-22T06:47:37;18.73;;;13.55;;
20511;SDS011;10414;52.074;5.126;2023-06-22T06:50:05;18.65;;;13.07;;
20511;SDS011;10414;52.074;5.126;2023-06-22T06:52:34;20.98;;;13.77;;
20511;SDS011;10414;52.074;5.126;2023-06-22T06:55:01;18.83;;;12.40;;
20511;SDS011;10414;52.074;5.126;2023-06-22T06:57:29;20.25;;;13.45;;
20511;SDS011;10414;52.074;5.126;2023-06-22T06:59:57;18.33;;;12.52;;
20511;SDS011;10414;52.074;5.126;2023-06-22T07:02:25;17.55;;;13.30;;
20511;SDS011;10414;52.074;5.126;2023-06-22T07:04:54;17.42;;;11.63;;
20511;SDS011;10414;52.074;5.126;2023-06-22T07:07:21;16.73;;;11.55;;
20511;SDS011;10414;52.074;5.126;2023-06-22T07:09:49;16.48;;;12.18;;
20511;SDS011;10414;52.074;5.126;2023-06-22T07:12:19;20.92;;;13.38;;
20511;SDS011;10414;52.074;5.126;2023-06-22T07:14:46;19.90;;;12.73;;
20511;SDS011;10414;52.074;5.126;2023-06-22T07:17:13;20.63;;;13.20;;
20511;SDS011;10414;52.074;5.126;2023-06-22T07:19:40;18.77;;;11.88;;
20511;SDS011;10414;52.074;5.126;2023-06-22T07:22:07;19.00;;;12.77;;
20511;SDS011;10414;52.074;5.126;2023-06-22T07:24:34;17.80;;;12.30;;
20511;SDS011;10414;52.074;5.126;2023-06-22T07:27:05;19.80;;;12.40;;
20511;SDS011;10414;52.074;5.126;2023-06-22T07:29:32;21.00;;;12.68;;
20511;SDS011;10414;52.074;5.126;2023-06-22T07:31:59;17.45;;;11.15;;
20511;SDS011;10414;52.074;5.126;2023-06-22T07:34:32;17.85;;;12.27;;
20511;SDS011;10414;52.074;5.126;2023-06-22T07:36:59;15.57;;;11.57;;
20511;SDS011;10414;52.074;5.126;2023-06-22T07:39:26;16.25;;;11.63;;
20511;SDS011;10414;52.074;5.126;2023-06-22T07:41:53;16.70;;;12.25;;
20511;SDS011;10414;52.074;5.126;2023-06-22T07:44:21;16.63;;;10.90;;
20511;SDS011;10414;52.074;5.126;2023-06-22T07:46:49;14.32;;;10.40;;
20511;SDS011;10414;52.074;5.126;2023-06-22T07:49:16;14.93;;;11.27;;
20511;SDS011;10414;52.074;5.126;2023-06-22T07:51:43;15.55;;;11.00;;
20511;SDS011;10414;52.074;5.126;2023-06-22T07:54:10;14.95;;;10.70;;
20511;SDS011;10414;52.074;5.126;2023-06-22T07:56:37;15.80;;;11.70;;
20511;SDS011;10414;52.074;5.126;2023-06-22T07:59:05;16.05;;;11.45;;
20511;SDS011;10414;52.074;5.126;2023-06-22T08:01:33;13.80;;;10.48;;
20511;SDS011;10414;52.074;5.126;2023-06-22T08:04:09;13.88;;;10.77;;
20511;SDS011;10414;52.074;5.126;2023-06-22T08:06:36;14.90;;;11.18;;
20511;SDS011;10414;52.074;5.126;2023-06-22T08:09:05;16.00;;;11.18;;
20511;SDS011;10414;52.074;5.126;2023-06-22T08:11:32;14.93;;;10.18;;
20511;SDS011;10414;52.074;5.126;2023-06-22T08:13:59;19.98;;;10.55;;
20511;SDS011;10414;52.074;5.126;2023-06-22T08:16:26;17.83;;;9.90;;
20511;SDS011;10414;52.074;5.126;2023-06-22T08:18:57;13.27;;;9.50;;
20511;SDS011;10414;52.074;5.126;2023-06-22T08:21:27;13.90;;;8.60;;
20511;SDS011;10414;52.074;5.126;2023-06-22T08:23:55;13.32;;;8.05;;
20511;SDS011;10414;52.074;5.126;2023-06-22T08:26:22;12.32;;;7.82;;
20511;SDS011;10414;52.074;5.126;2023-06-22T08:28:52;11.32;;;6.80;;
20511;SDS011;10414;52.074;5.126;2023-06-22T08:31:19;11.25;;;7.32;;
20511;SDS011;10414;52.074;5.126;2023-06-22T08:33:54;10.35;;;7.05;;
20511;SDS011;10414;52.074;5.126;2023-06-22T08:36:22;9.88;;;6.60;;
20511;SDS011;10414;52.074;5.126;2023-06-22T08:38:49;9.00;;;6.20;;
20511;SDS011;10414;52.074;5.126;2023-06-22T08:41:16;12.88;;;7.68;;
20511;SDS011;10414;52.074;5.126;2023-06-22T08:43:45;11.10;;;6.80;;
20511;SDS011;10414;52.074;5.126;2023-06-22T08:46:15;10.15;;;6.78;;
20511;SDS011;10414;52.074;5.126;2023-06-22T08:48:45;14.73;;;8.30;;
20511;SDS011;10414;52.074;5.126;2023-06-22T08:51:12;11.88;;;8.27;;
20511;SDS011;10414;52.074;5.126;2023-06-22T08:53:40;12.13;;;7.63;;
20511;SDS011;10414;52.074;5.126;2023-06-22T08:56:08;9.13;;;6.63;;
20511;SDS011;10414;52.074;5.126;2023-06-22T08:58:35;10.02;;;6.80;;
20511;SDS011;10414;52.074;5.126;2023-06-22T09:01:01;7.88;;;5.25;;
20511;SDS011;10414;52.074;5.126;2023-06-22T09:03:29;8.65;;;5.32;;
20511;SDS011;10414;52.074;5.126;2023-06-22T09:05:57;8.15;;;5.13;;
20511;SDS011;10414;52.074;5.126;2023-06-22T09:08:29;10.55;;;5.25;;
20511;SDS011;10414;52.074;5.126;2023-06-22T09:13:24;6.63;;;4.35;;
20511;SDS011;10414;52.074;5.126;2023-06-22T09:15:51;8.43;;;4.43;;
20511;SDS011;10414;52.074;5.126;2023-06-22T09:18:17;6.13;;;3.92;;
20511;SDS011;10414;52.074;5.126;2023-06-22T09:20:44;9.18;;;6.30;;
20511;SDS011;10414;52.074;5.126;2023-06-22T09:23:11;8.45;;;5.60;;
20511;SDS011;10414;52.074;5.126;2023-06-22T09:25:38;9.75;;;5.07;;
20511;SDS011;10414;52.074;5.126;2023-06-22T09:28:07;9.43;;;5.85;;
20511;SDS011;10414;52.074;5.126;2023-06-22T09:30:34;10.65;;;5.32;;
20511;SDS011;10414;52.074;5.126;2023-06-22T09:33:01;8.15;;;4.78;;
20511;SDS011;10414;52.074;5.126;2023-06-22T09:35:27;8.27;;;5.30;;
20511;SDS011;10414;52.074;5.126;2023-06-22T09:37:54;7.55;;;4.88;;
20511;SDS011;10414;52.074;5.126;2023-06-22T09:40:21;7.40;;;4.70;;
20511;SDS011;10414;52.074;5.126;2023-06-22T09:42:48;8.95;;;5.43;;
20511;SDS011;10414;52.074;5.126;2023-06-22T09:45:16;8.88;;;5.45;;
20511;SDS011;10414;52.074;5.126;2023-06-22T09:47:43;6.32;;;4.47;;
20511;SDS011;10414;52.074;5.126;2023-06-22T09:50:12;9.65;;;5.72;;
20511;SDS011;10414;52.074;5.126;2023-06-22T09:52:39;8.43;;;5.28;;
20511;SDS011;10414;52.074;5.126;2023-06-22T09:55:09;12.30;;;5.40;;
20511;SDS011;10414;52.074;5.126;2023-06-22T09:57:36;9.15;;;5.13;;
20511;SDS011;10414;52.074;5.126;2023-06-22T10:00:03;8.38;;;4.82;;
20511;SDS011;10414;52.074;5.126;2023-06-22T10:02:35;8.45;;;5.15;;
20511;SDS011;10414;52.074;5.126;2023-06-22T10:05:02;7.35;;;4.68;;
20511;SDS011;10414;52.074;5.126;2023-06-22T10:07:32;8.00;;;4.93;;
20511;SDS011;10414;52.074;5.126;2023-06-22T10:10:00;7.32;;;4.70;;
20511;SDS011;10414;52.074;5.126;2023-06-22T10:12:27;7.78;;;5.07;;
20511;SDS011;10414;52.074;5.126;2023-06-22T10:14:57;8.52;;;4.80;;
20511;SDS011;10414;52.074;5.126;2023-06-22T10:17:24;7.75;;;4.28;;
20511;SDS011;10414;52.074;5.126;2023-06-22T10:19:52;8.27;;;4.30;;
20511;SDS011;10414;52.074;5.126;2023-06-22T10:22:21;6.50;;;4.20;;
20511;SDS011;10414;52.074;5.126;2023-06-22T10:24:48;5.90;;;3.80;;
20511;SDS011;10414;52.074;5.126;2023-06-22T10:27:15;7.07;;;4.25;;
20511;SDS011;10414;52.074;5.126;2023-06-22T10:29:42;7.00;;;4.22;;
20511;SDS011;10414;52.074;5.126;2023-06-22T10:32:10;8.82;;;4.90;;
20511;SDS011;10414;52.074;5.126;2023-06-22T10:34:40;8.68;;;4.65;;
20511;SDS011;10414;52.074;5.126;2023-06-22T10:37:08;8.93;;;5.10;;
20511;SDS011;10414;52.074;5.126;2023-06-22T10:39:35;9.88;;;5.22;;
20511;SDS011;10414;52.074;5.126;2023-06-22T10:42:01;10.75;;;5.20;;
20511;SDS011;10414;52.074;5.126;2023-06-22T10:44:30;10.60;;;5.70;;
20511;SDS011;10414;52.074;5.126;2023-06-22T10:46:56;8.80;;;5.60;;
20511;SDS011;10414;52.074;5.126;2023-06-22T10:49:23;10.70;;;5.70;;
20511;SDS011;10414;52.074;5.126;2023-06-22T10:51:50;10.38;;;5.65;;
20511;SDS011;10414;52.074;5.126;2023-06-22T10:54:20;10.15;;;6.30;;
20511;SDS011;10414;52.074;5.126;2023-06-22T10:56:47;12.75;;;5.90;;
20511;SDS011;10414;52.074;5.126;2023-06-22T10:59:14;8.90;;;5.43;;
20511;SDS011;10414;52.074;5.126;2023-06-22T11:01:45;10.68;;;6.00;;
20511;SDS011;10414;52.074;5.126;2023-06-22T11:04:14;9.73;;;5.55;;
20511;SDS011;10414;52.074;5.126;2023-06-22T11:06:43;9.48;;;5.70;;
20511;SDS011;10414;52.074;5.126;2023-06-22T11:09:10;10.23;;;5.85;;
20511;SDS011;10414;52.074;5.126;2023-06-22T11:11:38;10.00;;;5.10;;
20511;SDS011;10414;52.074;5.126;2023-06-22T11:14:05;8.00;;;5.30;;
20511;SDS011;10414;52.074;5.126;2023-06-22T11:16:32;8.18;;;5.22;;
20511;SDS011;10414;52.074;5.126;2023-06-22T11:18:59;11.57;;;5.78;;
20511;SDS011;10414;52.074;5.126;2023-06-22T11:21:26;8.95;;;5.38;;
20511;SDS011;10414;52.074;5.126;2023-06-22T11:23:53;11.25;;;6.38;;
20511;SDS011;10414;52.074;5.126;2023-06-22T11:26:20;11.10;;;6.07;;
20511;SDS011;10414;52.074;5.126;2023-06-22T11:28:48;10.20;;;5.45;;
20511;SDS011;10414;52.074;5.126;2023-06-22T11:31:15;11.57;;;6.35;;
20511;SDS011;10414;52.074;5.126;2023-06-22T11:33:44;10.55;;;5.90;;
20511;SDS011;10414;52.074;5.126;2023-06-22T11:36:12;10.40;;;5.75;;
20511;SDS011;10414;52.074;5.126;2023-06-22T11:38:40;11.05;;;6.30;;
20511;SDS011;10414;52.074;5.126;2023-06-22T11:41:07;9.40;;;5.53;;
20511;SDS011;10414;52.074;5.126;2023-06-22T11:43:35;9.88;;;5.60;;
20511;SDS011;10414;52.074;5.126;2023-06-22T11:46:04;11.55;;;6.32;;
20511;SDS011;10414;52.074;5.126;2023-06-22T11:48:31;10.07;;;5.65;;
20511;SDS011;10414;52.074;5.126;2023-06-22T11:50:58;7.70;;;4.38;;
20511;SDS011;10414;52.074;5.126;2023-06-22T11:53:25;9.88;;;5.95;;
20511;SDS011;10414;52.074;5.126;2023-06-22T11:55:53;8.88;;;5.32;;
20511;SDS011;10414;52.074;5.126;2023-06-22T11:58:20;11.73;;;6.85;;
20511;SDS011;10414;52.074;5.126;2023-06-22T12:00:47;10.70;;;7.18;;
20511;SDS011;10414;52.074;5.126;2023-06-22T12:03:16;13.23;;;7.78;;
20511;SDS011;10414;52.074;5.126;2023-06-22T12:05:45;11.55;;;7.63;;
20511;SDS011;10414;52.074;5.126;2023-06-22T12:08:13;13.50;;;7.40;;
20511;SDS011;10414;52.074;5.126;2023-06-22T12:10:40;14.13;;;8.70;;
20511;SDS011;10414;52.074;5.126;2023-06-22T12:13:07;13.85;;;8.45;;
20511;SDS011;10414;52.074;5.126;2023-06-22T12:15:37;18.92;;;8.98;;
20511;SDS011;10414;52.074;5.126;2023-06-22T12:18:04;14.07;;;8.30;;
20511;SDS011;10414;52.074;5.126;2023-06-22T12:20:37;13.68;;;8.07;;
20511;SDS011;10414;52.074;5.126;2023-06-22T12:23:10;10.65;;;7.25;;
20511;SDS011;10414;52.074;5.126;2023-06-22T12:25:36;11.48;;;8.40;;
20511;SDS011;10414;52.074;5.126;2023-06-22T12:28:03;13.25;;;8.85;;
20511;SDS011;10414;52.074;5.126;2023-06-22T12:30:32;15.35;;;9.25;;
20511;SDS011;10414;52.074;5.126;2023-06-22T12:32:59;13.07;;;7.93;;
20511;SDS011;10414;52.074;5.126;2023-06-22T12:35:26;15.68;;;9.68;;
20511;SDS011;10414;52.074;5.126;2023-06-22T12:37:54;14.65;;;9.60;;
20511;SDS011;10414;52.074;5.126;2023-06-22T12:40:21;12.98;;;8.90;;
20511;SDS011;10414;52.074;5.126;2023-06-22T12:42:48;15.48;;;9.98;;
20511;SDS011;10414;52.074;5.126;2023-06-22T12:45:14;14.13;;;9.25;;
20511;SDS011;10414;52.074;5.126;2023-06-22T12:47:41;13.70;;;10.38;;
20511;SDS011;10414;52.074;5.126;2023-06-22T12:50:08;14.30;;;10.38;;
20511;SDS011;10414;52.074;5.126;2023-06-22T12:52:36;13.80;;;10.25;;
20511;SDS011;10414;52.074;5.126;2023-06-22T12:57:34;15.02;;;9.88;;
20511;SDS011;10414;52.074;5.126;2023-06-22T13:00:01;13.00;;;10.35;;
20511;SDS011;10414;52.074;5.126;2023-06-22T13:02:30;16.02;;;11.25;;
20511;SDS011;10414;52.074;5.126;2023-06-22T13:04:57;18.50;;;11.70;;
20511;SDS011;10414;52.074;5.126;2023-06-22T13:07:26;17.33;;;11.13;;
20511;SDS011;10414;52.074;5.126;2023-06-22T13:09:56;17.65;;;11.68;;
20511;SDS011;10414;52.074;5.126;2023-06-22T13:12:24;19.38;;;12.20;;
20511;SDS011;10414;52.074;5.126;2023-06-22T13:14:54;19.48;;;13.90;;
20511;SDS011;10414;52.074;5.126;2023-06-22T13:17:20;19.00;;;13.48;;
20511;SDS011;10414;52.074;5.126;2023-06-22T13:19:47;19.13;;;13.52;;
20511;SDS011;10414;52.074;5.126;2023-06-22T13:25:05;17.38;;;12.88;;
20511;SDS011;10414;52.074;5.126;2023-06-22T13:27:34;24.60;;;13.40;;
20511;SDS011;10414;52.074;5.126;2023-06-22T13:30:01;20.52;;;14.15;;
20511;SDS011;10414;52.074;5.126;2023-06-22T13:32:28;18.52;;;13.65;;
20511;SDS011;10414;52.074;5.126;2023-06-22T13:34:55;19.02;;;13.80;;
20511;SDS011;10414;52.074;5.126;2023-06-22T13:37:25;18.38;;;13.93;;
20511;SDS011;10414;52.074;5.126;2023-06-22T13:39:55;18.13;;;12.77;;
20511;SDS011;10414;52.074;5.126;2023-06-22T13:42:24;19.08;;;15.00;;
20511;SDS011;10414;52.074;5.126;2023-06-22T13:44:52;21.95;;;15.68;;
20511;SDS011;10414;52.074;5.126;2023-06-22T13:47:21;19.45;;;14.82;;
20511;SDS011;10414;52.074;5.126;2023-06-22T13:49:48;21.35;;;14.95;;
20511;SDS011;10414;52.074;5.126;2023-06-22T13:52:15;19.38;;;15.10;;
20511;SDS011;10414;52.074;5.126;2023-06-22T13:54:44;22.38;;;14.70;;
20511;SDS011;10414;52.074;5.126;2023-06-22T13:57:11;23.90;;;15.90;;
20511;SDS011;10414;52.074;5.126;2023-06-22T13:59:38;22.95;;;15.65;;
20511;SDS011;10414;52.074;5.126;2023-06-22T14:02:14;22.60;;;15.95;;
20511;SDS011;10414;52.074;5.126;2023-06-22T14:04:40;22.33;;;15.73;;
20511;SDS011;10414;52.074;5.126;2023-06-22T14:07:07;20.75;;;15.50;;
20511;SDS011;10414;52.074;5.126;2023-06-22T14:09:34;21.58;;;15.07;;
20511;SDS011;10414;52.074;5.126;2023-06-22T14:12:03;18.45;;;15.23;;
20511;SDS011;10414;52.074;5.126;2023-06-22T14:14:32;26.75;;;16.20;;
20511;SDS011;10414;52.074;5.126;2023-06-22T14:16:59;18.88;;;15.38;;
20511;SDS011;10414;52.074;5.126;2023-06-22T14:19:28;20.52;;;16.58;;
20511;SDS011;10414;52.074;5.126;2023-06-22T14:22:00;24.35;;;16.13;;
20511;SDS011;10414;52.074;5.126;2023-06-22T14:24:27;20.17;;;14.98;;
20511;SDS011;10414;52.074;5.126;2023-06-22T14:26:54;20.13;;;14.88;;
20511;SDS011;10414;52.074;5.126;2023-06-22T14:29:21;23.13;;;15.10;;
20511;SDS011;10414;52.074;5.126;2023-06-22T14:31:48;20.63;;;15.60;;
20511;SDS011;10414;52.074;5.126;2023-06-22T14:34:17;23.70;;;15.77;;
20511;SDS011;10414;52.074;5.126;2023-06-22T14:36:46;20.10;;;14.90;;
20511;SDS011;10414;52.074;5.126;2023-06-22T14:39:12;22.42;;;16.33;;
20511;SDS011;10414;52.074;5.126;2023-06-22T14:41:39;20.67;;;14.75;;
20511;SDS011;10414;52.074;5.126;2023-06-22T14:44:06;23.20;;;15.40;;
20511;SDS011;10414;52.074;5.126;2023-06-22T14:46:33;22.88;;;16.80;;
20511;SDS011;10414;52.074;5.126;2023-06-22T14:49:00;22.80;;;15.95;;